sensor_id;sensor_type;location;lat;lon;timestamp;P1;durP1;ratioP1;P2;durP2;ratioP2
7205;SDS011;3644;53.480;10.004;2023-03-23T00:01:46;8.07;;;5.33;;
7205;SDS011;3644;53.480;10.004;2023-03-23T00:04:14;8.63;;;4.47;;
7205;SDS011;3644;53.480;10.004;2023-03-23T00:06:43;9.50;;;5.07;;
7205;SDS011;3644;53.480;10.004;2023-03-23T00:09:10;8.60;;;5.17;;
7205;SDS011;3644;53.480;10.004;2023-03-23T00:11:37;6.57;;;5.20;;
7205;SDS011;3644;53.480;10.004;2023-03-23T00:14:04;9.10;;;5.17;;
7205;SDS011;3644;53.480;10.004;2023-03-23T00:16:30;7.50;;;5.57;;
7205;SDS011;3644;53.480;10.004;2023-03-23T00:19:01;9.20;;;6.10;;
7205;SDS011;3644;53.480;10.004;2023-03-23T00:21:29;9.10;;;6.87;;
7205;SDS011;3644;53.480;10.004;2023-03-23T00:24:01;12.60;;;6.67;;
7205;SDS011;3644;53.480;10.004;2023-03-23T00:26:31;11.87;;;6.30;;
7205;SDS011;3644;53.480;10.004;2023-03-23T00:28:58;9.43;;;7.03;;
7205;SDS011;3644;53.480;10.004;2023-03-23T00:31:25;15.93;;;7.30;;
7205;SDS011;3644;53.480;10.004;2023-03-23T00:33:56;15.20;;;7.40;;
7205;SDS011;3644;53.480;10.004;2023-03-23T00:36:23;13.07;;;6.83;;
7205;SDS011;3644;53.480;10.004;2023-03-23T00:38:49;12.53;;;7.90;;
7205;SDS011;3644;53.480;10.004;2023-03-23T00:41:14;11.20;;;8.30;;
7205;SDS011;3644;53.480;10.004;2023-03-23T00:43:40;13.03;;;7.90;;
7205;SDS011;3644;53.480;10.004;2023-03-23T00:46:06;11.33;;;8.30;;
7205;SDS011;3644;53.480;10.004;2023-03-23T00:48:37;10.27;;;8.00;;
7205;SDS011;3644;53.480;10.004;2023-03-23T00:51:09;14.33;;;8.80;;
7205;SDS011;3644;53.480;10.004;2023-03-23T00:53:36;11.27;;;8.33;;
7205;SDS011;3644;53.480;10.004;2023-03-23T00:56:02;9.03;;;8.10;;
7205;SDS011;3644;53.480;10.004;2023-03-23T00:58:28;19.63;;;10.53;;
7205;SDS011;3644;53.480;10.004;2023-03-23T01:00:54;13.87;;;9.17;;
7205;SDS011;3644;53.480;10.004;2023-03-23T01:03:19;13.47;;;9.73;;
7205;SDS011;3644;53.480;10.004;2023-03-23T01:05:45;17.93;;;11.50;;
7205;SDS011;3644;53.480;10.004;2023-03-23T01:08:16;20.07;;;10.67;;
7205;SDS011;3644;53.480;10.004;2023-03-23T01:10:43;13.43;;;10.27;;
7205;SDS011;3644;53.480;10.004;2023-03-23T01:13:09;14.67;;;11.20;;
7205;SDS011;3644;53.480;10.004;2023-03-23T01:15:35;17.23;;;11.40;;
7205;SDS011;3644;53.480;10.004;2023-03-23T01:18:01;14.10;;;9.30;;
7205;SDS011;3644;53.480;10.004;2023-03-23T01:20:27;12.17;;;10.13;;
7205;SDS011;3644;53.480;10.004;2023-03-23T01:22:54;13.07;;;9.63;;
7205;SDS011;3644;53.480;10.004;2023-03-23T01:25:25;17.00;;;10.93;;
7205;SDS011;3644;53.480;10.004;2023-03-23T01:28:00;20.27;;;10.00;;
7205;SDS011;3644;53.480;10.004;2023-03-23T01:30:25;14.83;;;10.00;;
7205;SDS011;3644;53.480;10.004;2023-03-23T01:32:51;12.70;;;9.93;;
7205;SDS011;3644;53.480;10.004;2023-03-23T01:35:17;14.33;;;10.53;;
7205;SDS011;3644;53.480;10.004;2023-03-23T01:37:43;14.97;;;10.10;;
7205;SDS011;3644;53.480;10.004;2023-03-23T01:40:09;12.70;;;9.13;;
7205;SDS011;3644;53.480;10.004;2023-03-23T01:42:35;13.90;;;8.70;;
7205;SDS011;3644;53.480;10.004;2023-03-23T01:47:50;14.80;;;10.43;;
7205;SDS011;3644;53.480;10.004;2023-03-23T01:50:20;13.53;;;8.33;;
7205;SDS011;3644;53.480;10.004;2023-03-23T01:52:49;15.07;;;9.70;;
7205;SDS011;3644;53.480;10.004;2023-03-23T01:55:16;9.80;;;8.30;;
7205;SDS011;3644;53.480;10.004;2023-03-23T01:57:42;13.57;;;9.10;;
7205;SDS011;3644;53.480;10.004;2023-03-23T02:00:08;10.00;;;7.50;;
7205;SDS011;3644;53.480;10.004;2023-03-23T02:02:40;12.23;;;7.80;;
7205;SDS011;3644;53.480;10.004;2023-03-23T02:05:10;13.50;;;8.83;;
7205;SDS011;3644;53.480;10.004;2023-03-23T02:07:40;10.50;;;8.37;;
7205;SDS011;3644;53.480;10.004;2023-03-23T02:10:06;12.77;;;8.40;;
7205;SDS011;3644;53.480;10.004;2023-03-23T02:12:32;9.80;;;8.13;;
7205;SDS011;3644;53.480;10.004;2023-03-23T02:14:58;11.77;;;7.50;;
7205;SDS011;3644;53.480;10.004;2023-03-23T02:17:30;10.63;;;7.80;;
7205;SDS011;3644;53.480;10.004;2023-03-23T02:33:39;10.50;;;7.83;;
7205;SDS011;3644;53.480;10.004;2023-03-23T02:39:01;10.13;;;8.00;;
7205;SDS011;3644;53.480;10.004;2023-03-23T02:41:38;9.70;;;7.13;;
7205;SDS011;3644;53.480;10.004;2023-03-23T02:44:07;7.60;;;6.80;;
7205;SDS011;3644;53.480;10.004;2023-03-23T02:46:35;9.47;;;7.90;;
7205;SDS011;3644;53.480;10.004;2023-03-23T02:49:01;8.83;;;7.20;;
7205;SDS011;3644;53.480;10.004;2023-03-23T02:51:29;8.33;;;7.53;;
7205;SDS011;3644;53.480;10.004;2023-03-23T02:53:57;11.00;;;7.67;;
7205;SDS011;3644;53.480;10.004;2023-03-23T02:56:25;10.80;;;7.73;;
7205;SDS011;3644;53.480;10.004;2023-03-23T02:58:52;11.23;;;7.70;;
7205;SDS011;3644;53.480;10.004;2023-03-23T03:04:06;8.97;;;7.93;;
7205;SDS011;3644;53.480;10.004;2023-03-23T03:06:56;10.13;;;7.60;;
7205;SDS011;3644;53.480;10.004;2023-03-23T03:10:03;10.20;;;7.70;;
7205;SDS011;3644;53.480;10.004;2023-03-23T03:13:33;11.47;;;8.10;;
7205;SDS011;3644;53.480;10.004;2023-03-23T03:15:44;9.90;;;6.93;;
7205;SDS011;3644;53.480;10.004;2023-03-23T03:20:51;10.17;;;8.03;;
7205;SDS011;3644;53.480;10.004;2023-03-23T03:23:21;11.43;;;7.80;;
7205;SDS011;3644;53.480;10.004;2023-03-23T03:25:49;11.67;;;7.50;;
7205;SDS011;3644;53.480;10.004;2023-03-23T03:28:16;12.50;;;8.23;;
7205;SDS011;3644;53.480;10.004;2023-03-23T03:30:46;11.47;;;8.00;;
7205;SDS011;3644;53.480;10.004;2023-03-23T03:33:16;9.13;;;7.80;;
7205;SDS011;3644;53.480;10.004;2023-03-23T03:35:42;8.60;;;6.60;;
7205;SDS011;3644;53.480;10.004;2023-03-23T03:38:09;11.27;;;8.77;;
7205;SDS011;3644;53.480;10.004;2023-03-23T03:40:35;9.27;;;6.90;;
7205;SDS011;3644;53.480;10.004;2023-03-23T03:43:01;19.80;;;8.07;;
7205;SDS011;3644;53.480;10.004;2023-03-23T03:45:27;10.50;;;8.33;;
7205;SDS011;3644;53.480;10.004;2023-03-23T03:47:53;13.43;;;7.70;;
7205;SDS011;3644;53.480;10.004;2023-03-23T03:50:18;8.50;;;7.33;;
7205;SDS011;3644;53.480;10.004;2023-03-23T03:52:44;8.90;;;7.33;;
7205;SDS011;3644;53.480;10.004;2023-03-23T03:55:10;10.50;;;8.23;;
7205;SDS011;3644;53.480;10.004;2023-03-23T03:57:36;11.20;;;8.27;;
7205;SDS011;3644;53.480;10.004;2023-03-23T04:00:02;9.30;;;8.07;;
7205;SDS011;3644;53.480;10.004;2023-03-23T04:02:39;19.23;;;8.30;;
7205;SDS011;3644;53.480;10.004;2023-03-23T04:05:09;11.73;;;8.10;;
7205;SDS011;3644;53.480;10.004;2023-03-23T04:07:35;8.73;;;7.10;;
7205;SDS011;3644;53.480;10.004;2023-03-23T04:10:03;8.50;;;7.27;;
7205;SDS011;3644;53.480;10.004;2023-03-23T04:12:30;11.90;;;8.30;;
7205;SDS011;3644;53.480;10.004;2023-03-23T04:14:56;10.30;;;7.77;;
7205;SDS011;3644;53.480;10.004;2023-03-23T04:17:22;11.63;;;7.80;;
7205;SDS011;3644;53.480;10.004;2023-03-23T04:19:51;9.20;;;7.90;;
7205;SDS011;3644;53.480;10.004;2023-03-23T04:22:17;11.40;;;8.00;;
7205;SDS011;3644;53.480;10.004;2023-03-23T04:24:42;12.90;;;8.37;;
7205;SDS011;3644;53.480;10.004;2023-03-23T04:27:08;11.27;;;9.20;;
7205;SDS011;3644;53.480;10.004;2023-03-23T04:29:33;9.60;;;7.83;;
7205;SDS011;3644;53.480;10.004;2023-03-23T04:31:59;14.67;;;8.70;;
7205;SDS011;3644;53.480;10.004;2023-03-23T04:34:27;14.03;;;8.47;;
7205;SDS011;3644;53.480;10.004;2023-03-23T04:36:53;8.70;;;7.27;;
7205;SDS011;3644;53.480;10.004;2023-03-23T04:39:18;9.13;;;7.23;;
7205;SDS011;3644;53.480;10.004;2023-03-23T04:41:44;10.03;;;7.10;;
7205;SDS011;3644;53.480;10.004;2023-03-23T04:44:11;11.93;;;8.60;;
7205;SDS011;3644;53.480;10.004;2023-03-23T04:46:42;12.10;;;8.20;;
7205;SDS011;3644;53.480;10.004;2023-03-23T04:49:10;12.60;;;9.37;;
7205;SDS011;3644;53.480;10.004;2023-03-23T04:51:36;13.00;;;10.13;;
7205;SDS011;3644;53.480;10.004;2023-03-23T04:54:04;13.23;;;9.33;;
7205;SDS011;3644;53.480;10.004;2023-03-23T04:56:29;11.03;;;9.60;;
7205;SDS011;3644;53.480;10.004;2023-03-23T04:58:55;11.20;;;9.13;;
7205;SDS011;3644;53.480;10.004;2023-03-23T05:01:20;9.40;;;7.50;;
7205;SDS011;3644;53.480;10.004;2023-03-23T05:03:46;9.53;;;7.83;;
7205;SDS011;3644;53.480;10.004;2023-03-23T05:06:11;11.53;;;7.33;;
7205;SDS011;3644;53.480;10.004;2023-03-23T05:08:37;14.30;;;8.33;;
7205;SDS011;3644;53.480;10.004;2023-03-23T05:11:04;17.33;;;8.10;;
7205;SDS011;3644;53.480;10.004;2023-03-23T05:13:30;9.80;;;8.37;;
7205;SDS011;3644;53.480;10.004;2023-03-23T05:15:56;10.70;;;8.87;;
7205;SDS011;3644;53.480;10.004;2023-03-23T05:18:22;15.80;;;10.10;;
7205;SDS011;3644;53.480;10.004;2023-03-23T05:20:47;13.57;;;9.30;;
7205;SDS011;3644;53.480;10.004;2023-03-23T05:23:13;15.17;;;9.60;;
7205;SDS011;3644;53.480;10.004;2023-03-23T05:25:40;18.23;;;10.93;;
7205;SDS011;3644;53.480;10.004;2023-03-23T05:28:06;13.53;;;9.03;;
7205;SDS011;3644;53.480;10.004;2023-03-23T05:30:32;12.80;;;8.50;;
7205;SDS011;3644;53.480;10.004;2023-03-23T05:32:59;13.83;;;9.40;;
7205;SDS011;3644;53.480;10.004;2023-03-23T05:35:25;14.53;;;9.83;;
7205;SDS011;3644;53.480;10.004;2023-03-23T05:37:50;10.60;;;7.97;;
7205;SDS011;3644;53.480;10.004;2023-03-23T05:40:18;12.70;;;9.50;;
7205;SDS011;3644;53.480;10.004;2023-03-23T05:42:45;8.87;;;7.13;;
7205;SDS011;3644;53.480;10.004;2023-03-23T05:45:12;9.43;;;8.00;;
7205;SDS011;3644;53.480;10.004;2023-03-23T05:47:38;9.27;;;6.93;;
7205;SDS011;3644;53.480;10.004;2023-03-23T05:50:05;12.43;;;6.13;;
7205;SDS011;3644;53.480;10.004;2023-03-23T05:52:32;7.83;;;4.93;;
7205;SDS011;3644;53.480;10.004;2023-03-23T05:55:00;6.80;;;6.10;;
7205;SDS011;3644;53.480;10.004;2023-03-23T05:57:26;11.20;;;6.17;;
7205;SDS011;3644;53.480;10.004;2023-03-23T05:59:52;9.73;;;5.20;;
7205;SDS011;3644;53.480;10.004;2023-03-23T06:02:18;13.03;;;5.97;;
7205;SDS011;3644;53.480;10.004;2023-03-23T06:04:43;7.50;;;5.20;;
7205;SDS011;3644;53.480;10.004;2023-03-23T06:07:09;6.80;;;5.30;;
7205;SDS011;3644;53.480;10.004;2023-03-23T06:09:39;17.47;;;5.60;;
7205;SDS011;3644;53.480;10.004;2023-03-23T06:12:06;10.20;;;4.30;;
7205;SDS011;3644;53.480;10.004;2023-03-23T06:14:32;6.73;;;4.60;;
7205;SDS011;3644;53.480;10.004;2023-03-23T06:16:58;12.60;;;5.27;;
7205;SDS011;3644;53.480;10.004;2023-03-23T06:19:23;7.63;;;4.60;;
7205;SDS011;3644;53.480;10.004;2023-03-23T06:21:51;6.83;;;4.23;;
7205;SDS011;3644;53.480;10.004;2023-03-23T06:24:19;10.17;;;5.30;;
7205;SDS011;3644;53.480;10.004;2023-03-23T06:26:44;7.60;;;5.40;;
7205;SDS011;3644;53.480;10.004;2023-03-23T06:29:10;5.37;;;3.63;;
7205;SDS011;3644;53.480;10.004;2023-03-23T06:31:39;4.27;;;3.87;;
7205;SDS011;3644;53.480;10.004;2023-03-23T06:34:07;8.60;;;4.20;;
7205;SDS011;3644;53.480;10.004;2023-03-23T06:36:34;7.73;;;4.00;;
7205;SDS011;3644;53.480;10.004;2023-03-23T06:38:59;5.10;;;3.53;;
7205;SDS011;3644;53.480;10.004;2023-03-23T06:41:25;9.73;;;3.97;;
7205;SDS011;3644;53.480;10.004;2023-03-23T06:43:51;6.83;;;4.37;;
7205;SDS011;3644;53.480;10.004;2023-03-23T06:46:17;8.33;;;3.73;;
7205;SDS011;3644;53.480;10.004;2023-03-23T06:48:43;6.73;;;3.83;;
7205;SDS011;3644;53.480;10.004;2023-03-23T06:51:08;5.27;;;3.93;;
7205;SDS011;3644;53.480;10.004;2023-03-23T06:53:34;4.70;;;3.40;;
7205;SDS011;3644;53.480;10.004;2023-03-23T06:56:00;3.23;;;2.93;;
7205;SDS011;3644;53.480;10.004;2023-03-23T06:58:25;4.60;;;3.73;;
7205;SDS011;3644;53.480;10.004;2023-03-23T07:00:54;6.90;;;3.43;;
7205;SDS011;3644;53.480;10.004;2023-03-23T07:03:24;5.27;;;3.33;;
7205;SDS011;3644;53.480;10.004;2023-03-23T07:05:51;3.47;;;3.17;;
7205;SDS011;3644;53.480;10.004;2023-03-23T07:08:16;6.27;;;3.27;;
7205;SDS011;3644;53.480;10.004;2023-03-23T07:10:42;4.73;;;2.50;;
7205;SDS011;3644;53.480;10.004;2023-03-23T07:13:08;4.70;;;3.57;;
7205;SDS011;3644;53.480;10.004;2023-03-23T07:15:34;5.27;;;3.33;;
7205;SDS011;3644;53.480;10.004;2023-03-23T07:17:59;3.67;;;3.33;;
7205;SDS011;3644;53.480;10.004;2023-03-23T07:20:25;4.90;;;3.50;;
7205;SDS011;3644;53.480;10.004;2023-03-23T07:22:53;4.67;;;3.20;;
7205;SDS011;3644;53.480;10.004;2023-03-23T07:25:18;4.60;;;3.47;;
7205;SDS011;3644;53.480;10.004;2023-03-23T07:27:45;3.53;;;3.23;;
7205;SDS011;3644;53.480;10.004;2023-03-23T07:30:11;5.30;;;3.30;;
7205;SDS011;3644;53.480;10.004;2023-03-23T07:32:38;2.40;;;2.27;;
7205;SDS011;3644;53.480;10.004;2023-03-23T07:35:03;3.40;;;3.10;;
7205;SDS011;3644;53.480;10.004;2023-03-23T07:37:29;7.30;;;3.00;;
7205;SDS011;3644;53.480;10.004;2023-03-23T07:39:57;9.53;;;3.63;;
7205;SDS011;3644;53.480;10.004;2023-03-23T07:42:22;4.90;;;2.97;;
7205;SDS011;3644;53.480;10.004;2023-03-23T07:44:48;4.30;;;3.37;;
7205;SDS011;3644;53.480;10.004;2023-03-23T07:47:13;5.70;;;3.30;;
7205;SDS011;3644;53.480;10.004;2023-03-23T07:49:39;2.90;;;2.70;;
7205;SDS011;3644;53.480;10.004;2023-03-23T07:52:05;4.87;;;3.93;;
7205;SDS011;3644;53.480;10.004;2023-03-23T07:54:31;3.77;;;3.37;;
7205;SDS011;3644;53.480;10.004;2023-03-23T07:56:56;3.00;;;2.73;;
7205;SDS011;3644;53.480;10.004;2023-03-23T07:59:22;3.77;;;3.43;;
7205;SDS011;3644;53.480;10.004;2023-03-23T08:01:47;9.53;;;3.40;;
7205;SDS011;3644;53.480;10.004;2023-03-23T08:04:13;3.93;;;3.57;;
7205;SDS011;3644;53.480;10.004;2023-03-23T08:06:40;3.37;;;3.13;;
7205;SDS011;3644;53.480;10.004;2023-03-23T08:09:05;4.70;;;3.43;;
7205;SDS011;3644;53.480;10.004;2023-03-23T08:11:32;2.70;;;2.50;;
7205;SDS011;3644;53.480;10.004;2023-03-23T08:13:59;7.30;;;4.20;;
7205;SDS011;3644;53.480;10.004;2023-03-23T08:16:24;3.60;;;3.27;;
7205;SDS011;3644;53.480;10.004;2023-03-23T08:18:50;5.30;;;3.70;;
7205;SDS011;3644;53.480;10.004;2023-03-23T08:21:16;8.10;;;4.47;;
7205;SDS011;3644;53.480;10.004;2023-03-23T08:23:42;6.70;;;3.67;;
7205;SDS011;3644;53.480;10.004;2023-03-23T08:26:08;3.93;;;3.63;;
7205;SDS011;3644;53.480;10.004;2023-03-23T08:28:35;4.17;;;3.77;;
7205;SDS011;3644;53.480;10.004;2023-03-23T08:31:07;10.57;;;4.10;;
7205;SDS011;3644;53.480;10.004;2023-03-23T08:33:35;4.70;;;3.60;;
7205;SDS011;3644;53.480;10.004;2023-03-23T08:36:01;3.53;;;3.10;;
7205;SDS011;3644;53.480;10.004;2023-03-23T08:38:28;4.43;;;3.73;;
7205;SDS011;3644;53.480;10.004;2023-03-23T08:40:58;3.37;;;3.07;;
7205;SDS011;3644;53.480;10.004;2023-03-23T08:43:28;3.07;;;2.80;;
7205;SDS011;3644;53.480;10.004;2023-03-23T08:45:54;4.47;;;2.43;;
7205;SDS011;3644;53.480;10.004;2023-03-23T08:48:20;3.80;;;2.43;;
7205;SDS011;3644;53.480;10.004;2023-03-23T08:50:47;5.63;;;2.87;;
7205;SDS011;3644;53.480;10.004;2023-03-23T08:53:14;3.93;;;2.67;;
7205;SDS011;3644;53.480;10.004;2023-03-23T08:55:40;7.77;;;2.40;;
7205;SDS011;3644;53.480;10.004;2023-03-23T08:58:06;6.17;;;2.57;;
7205;SDS011;3644;53.480;10.004;2023-03-23T09:00:32;2.93;;;1.83;;
7205;SDS011;3644;53.480;10.004;2023-03-23T09:02:58;2.93;;;1.67;;
7205;SDS011;3644;53.480;10.004;2023-03-23T09:05:24;3.27;;;1.93;;
7205;SDS011;3644;53.480;10.004;2023-03-23T09:07:53;5.30;;;1.47;;
7205;SDS011;3644;53.480;10.004;2023-03-23T09:10:20;4.90;;;1.90;;
7205;SDS011;3644;53.480;10.004;2023-03-23T09:12:47;3.10;;;1.90;;
7205;SDS011;3644;53.480;10.004;2023-03-23T09:15:14;1.57;;;1.27;;
7205;SDS011;3644;53.480;10.004;2023-03-23T09:17:42;8.47;;;1.83;;
7205;SDS011;3644;53.480;10.004;2023-03-23T09:20:13;9.40;;;2.20;;
7205;SDS011;3644;53.480;10.004;2023-03-23T09:22:42;5.30;;;1.97;;
7205;SDS011;3644;53.480;10.004;2023-03-23T09:25:09;4.53;;;2.30;;
7205;SDS011;3644;53.480;10.004;2023-03-23T09:27:36;7.30;;;1.80;;
7205;SDS011;3644;53.480;10.004;2023-03-23T09:30:04;6.77;;;1.60;;
7205;SDS011;3644;53.480;10.004;2023-03-23T09:32:32;6.13;;;2.00;;
7205;SDS011;3644;53.480;10.004;2023-03-23T09:34:59;8.90;;;2.20;;
7205;SDS011;3644;53.480;10.004;2023-03-23T09:37:26;4.93;;;2.13;;
7205;SDS011;3644;53.480;10.004;2023-03-23T09:39:51;6.03;;;1.90;;
7205;SDS011;3644;53.480;10.004;2023-03-23T09:42:29;4.43;;;2.50;;
7205;SDS011;3644;53.480;10.004;2023-03-23T09:50:42;2.50;;;1.70;;
7205;SDS011;3644;53.480;10.004;2023-03-23T09:53:11;7.73;;;1.60;;
7205;SDS011;3644;53.480;10.004;2023-03-23T09:55:43;5.87;;;3.27;;
7205;SDS011;3644;53.480;10.004;2023-03-23T09:58:17;5.67;;;1.83;;
7205;SDS011;3644;53.480;10.004;2023-03-23T10:01:00;5.57;;;1.83;;
7205;SDS011;3644;53.480;10.004;2023-03-23T10:03:37;5.67;;;1.30;;
7205;SDS011;3644;53.480;10.004;2023-03-23T10:06:07;7.97;;;1.67;;
7205;SDS011;3644;53.480;10.004;2023-03-23T10:08:35;12.60;;;2.10;;
7205;SDS011;3644;53.480;10.004;2023-03-23T10:11:18;7.33;;;1.70;;
7205;SDS011;3644;53.480;10.004;2023-03-23T10:17:22;6.60;;;1.80;;
7205;SDS011;3644;53.480;10.004;2023-03-23T10:19:36;11.47;;;2.30;;
7205;SDS011;3644;53.480;10.004;2023-03-23T10:22:05;7.90;;;2.90;;
7205;SDS011;3644;53.480;10.004;2023-03-23T10:24:35;15.50;;;2.83;;
7205;SDS011;3644;53.480;10.004;2023-03-23T10:27:33;2.90;;;1.87;;
7205;SDS011;3644;53.480;10.004;2023-03-23T10:32:56;5.43;;;1.70;;
7205;SDS011;3644;53.480;10.004;2023-03-23T10:35:28;6.83;;;2.23;;
7205;SDS011;3644;53.480;10.004;2023-03-23T10:38:01;8.63;;;3.00;;
7205;SDS011;3644;53.480;10.004;2023-03-23T10:40:30;9.30;;;1.93;;
7205;SDS011;3644;53.480;10.004;2023-03-23T10:42:58;9.73;;;2.43;;
7205;SDS011;3644;53.480;10.004;2023-03-23T10:45:28;4.30;;;2.27;;
7205;SDS011;3644;53.480;10.004;2023-03-23T10:50:32;6.17;;;3.10;;
7205;SDS011;3644;53.480;10.004;2023-03-23T10:53:03;12.40;;;2.63;;
7205;SDS011;3644;53.480;10.004;2023-03-23T10:55:42;15.20;;;3.13;;
7205;SDS011;3644;53.480;10.004;2023-03-23T10:58:10;6.87;;;2.40;;
7205;SDS011;3644;53.480;10.004;2023-03-23T11:00:42;6.07;;;2.10;;
7205;SDS011;3644;53.480;10.004;2023-03-23T11:05:44;9.17;;;1.80;;
7205;SDS011;3644;53.480;10.004;2023-03-23T11:08:22;8.13;;;2.53;;
7205;SDS011;3644;53.480;10.004;2023-03-23T11:10:54;5.60;;;2.20;;
7205;SDS011;3644;53.480;10.004;2023-03-23T11:13:27;12.63;;;3.97;;
7205;SDS011;3644;53.480;10.004;2023-03-23T11:15:57;7.67;;;2.33;;
7205;SDS011;3644;53.480;10.004;2023-03-23T11:21:01;10.93;;;2.63;;
7205;SDS011;3644;53.480;10.004;2023-03-23T11:23:29;7.33;;;2.87;;
7205;SDS011;3644;53.480;10.004;2023-03-23T11:26:29;13.07;;;2.87;;
7205;SDS011;3644;53.480;10.004;2023-03-23T11:29:03;7.50;;;2.53;;
7205;SDS011;3644;53.480;10.004;2023-03-23T11:31:38;13.27;;;2.83;;
7205;SDS011;3644;53.480;10.004;2023-03-23T11:34:15;8.20;;;2.80;;
7205;SDS011;3644;53.480;10.004;2023-03-23T11:36:48;11.53;;;2.77;;
7205;SDS011;3644;53.480;10.004;2023-03-23T11:39:18;13.07;;;3.40;;
7205;SDS011;3644;53.480;10.004;2023-03-23T11:41:51;7.83;;;2.77;;
7205;SDS011;3644;53.480;10.004;2023-03-23T11:44:17;9.73;;;2.50;;
7205;SDS011;3644;53.480;10.004;2023-03-23T11:49:35;13.83;;;2.70;;
7205;SDS011;3644;53.480;10.004;2023-03-23T11:52:10;6.63;;;2.43;;
7205;SDS011;3644;53.480;10.004;2023-03-23T11:54:44;15.27;;;2.80;;
7205;SDS011;3644;53.480;10.004;2023-03-23T11:57:22;7.77;;;2.50;;
7205;SDS011;3644;53.480;10.004;2023-03-23T11:59:49;6.90;;;2.40;;
7205;SDS011;3644;53.480;10.004;2023-03-23T12:02:20;5.17;;;2.37;;
7205;SDS011;3644;53.480;10.004;2023-03-23T12:10:44;6.97;;;2.07;;
7205;SDS011;3644;53.480;10.004;2023-03-23T12:18:55;7.97;;;2.43;;
7205;SDS011;3644;53.480;10.004;2023-03-23T12:26:51;7.90;;;4.00;;
7205;SDS011;3644;53.480;10.004;2023-03-23T12:29:46;7.63;;;2.87;;
7205;SDS011;3644;53.480;10.004;2023-03-23T12:32:35;12.80;;;2.73;;
7205;SDS011;3644;53.480;10.004;2023-03-23T12:38:13;6.53;;;2.50;;
7205;SDS011;3644;53.480;10.004;2023-03-23T12:44:01;7.97;;;2.17;;
7205;SDS011;3644;53.480;10.004;2023-03-23T12:49:34;7.23;;;2.73;;
7205;SDS011;3644;53.480;10.004;2023-03-23T12:52:10;4.80;;;2.10;;
7205;SDS011;3644;53.480;10.004;2023-03-23T12:59:50;5.43;;;2.13;;
7205;SDS011;3644;53.480;10.004;2023-03-23T13:02:36;5.80;;;2.43;;
7205;SDS011;3644;53.480;10.004;2023-03-23T13:07:54;8.57;;;2.73;;
7205;SDS011;3644;53.480;10.004;2023-03-23T13:10:26;7.03;;;2.20;;
7205;SDS011;3644;53.480;10.004;2023-03-23T13:12:57;8.17;;;2.70;;
7205;SDS011;3644;53.480;10.004;2023-03-23T13:15:29;6.03;;;2.20;;
7205;SDS011;3644;53.480;10.004;2023-03-23T13:23:56;2.93;;;2.03;;
7205;SDS011;3644;53.480;10.004;2023-03-23T13:26:23;4.93;;;2.03;;
7205;SDS011;3644;53.480;10.004;2023-03-23T13:28:57;7.67;;;2.53;;
7205;SDS011;3644;53.480;10.004;2023-03-23T13:31:31;3.77;;;1.70;;
7205;SDS011;3644;53.480;10.004;2023-03-23T13:36:56;5.80;;;1.97;;
7205;SDS011;3644;53.480;10.004;2023-03-23T13:39:25;3.87;;;1.53;;
7205;SDS011;3644;53.480;10.004;2023-03-23T13:42:18;5.13;;;2.80;;
7205;SDS011;3644;53.480;10.004;2023-03-23T13:49:56;7.13;;;1.60;;
7205;SDS011;3644;53.480;10.004;2023-03-23T13:54:49;3.53;;;1.77;;
7205;SDS011;3644;53.480;10.004;2023-03-23T13:59:59;6.73;;;1.73;;
7205;SDS011;3644;53.480;10.004;2023-03-23T14:02:40;10.57;;;3.30;;
7205;SDS011;3644;53.480;10.004;2023-03-23T14:07:55;3.60;;;1.80;;
7205;SDS011;3644;53.480;10.004;2023-03-23T14:10:36;5.77;;;1.87;;
7205;SDS011;3644;53.480;10.004;2023-03-23T14:13:10;9.87;;;1.67;;
7205;SDS011;3644;53.480;10.004;2023-03-23T14:15:53;2.53;;;1.33;;
7205;SDS011;3644;53.480;10.004;2023-03-23T14:18:25;3.83;;;1.43;;
7205;SDS011;3644;53.480;10.004;2023-03-23T14:20:55;9.40;;;1.27;;
7205;SDS011;3644;53.480;10.004;2023-03-23T14:23:22;7.13;;;2.10;;
7205;SDS011;3644;53.480;10.004;2023-03-23T14:25:54;6.63;;;2.23;;
7205;SDS011;3644;53.480;10.004;2023-03-23T14:28:21;7.63;;;1.83;;
7205;SDS011;3644;53.480;10.004;2023-03-23T14:30:48;6.77;;;1.67;;
7205;SDS011;3644;53.480;10.004;2023-03-23T14:33:18;5.50;;;1.60;;
7205;SDS011;3644;53.480;10.004;2023-03-23T14:35:45;2.10;;;1.20;;
7205;SDS011;3644;53.480;10.004;2023-03-23T14:38:17;4.00;;;1.20;;
7205;SDS011;3644;53.480;10.004;2023-03-23T14:40:46;1.67;;;1.43;;
7205;SDS011;3644;53.480;10.004;2023-03-23T14:43:13;4.63;;;1.50;;
7205;SDS011;3644;53.480;10.004;2023-03-23T14:45:41;2.00;;;1.50;;
7205;SDS011;3644;53.480;10.004;2023-03-23T14:48:07;7.90;;;1.60;;
7205;SDS011;3644;53.480;10.004;2023-03-23T14:53:11;7.93;;;1.77;;
7205;SDS011;3644;53.480;10.004;2023-03-23T14:55:55;3.97;;;1.47;;
7205;SDS011;3644;53.480;10.004;2023-03-23T14:58:24;4.10;;;1.97;;
7205;SDS011;3644;53.480;10.004;2023-03-23T15:03:26;4.57;;;2.00;;
7205;SDS011;3644;53.480;10.004;2023-03-23T15:05:56;1.83;;;1.70;;
7205;SDS011;3644;53.480;10.004;2023-03-23T15:08:25;7.23;;;2.60;;
7205;SDS011;3644;53.480;10.004;2023-03-23T15:11:11;7.53;;;2.10;;
7205;SDS011;3644;53.480;10.004;2023-03-23T15:13:58;5.00;;;2.40;;
7205;SDS011;3644;53.480;10.004;2023-03-23T15:16:29;5.97;;;2.33;;
7205;SDS011;3644;53.480;10.004;2023-03-23T15:19:10;6.40;;;2.17;;
7205;SDS011;3644;53.480;10.004;2023-03-23T15:21:53;12.30;;;4.60;;
7205;SDS011;3644;53.480;10.004;2023-03-23T15:26:51;8.30;;;2.67;;
7205;SDS011;3644;53.480;10.004;2023-03-23T15:29:18;8.50;;;2.97;;
7205;SDS011;3644;53.480;10.004;2023-03-23T15:31:55;4.00;;;2.33;;
7205;SDS011;3644;53.480;10.004;2023-03-23T15:37:13;5.70;;;2.00;;
7205;SDS011;3644;53.480;10.004;2023-03-23T15:39:45;3.43;;;1.37;;
7205;SDS011;3644;53.480;10.004;2023-03-23T15:42:31;2.50;;;1.63;;
7205;SDS011;3644;53.480;10.004;2023-03-23T15:45:03;3.37;;;1.80;;
7205;SDS011;3644;53.480;10.004;2023-03-23T15:50:14;6.80;;;3.67;;
7205;SDS011;3644;53.480;10.004;2023-03-23T15:52:42;4.73;;;1.93;;
7205;SDS011;3644;53.480;10.004;2023-03-23T15:58:01;2.83;;;1.70;;
7205;SDS011;3644;53.480;10.004;2023-03-23T16:00:34;10.10;;;2.20;;
7205;SDS011;3644;53.480;10.004;2023-03-23T16:03:00;4.60;;;1.83;;
7205;SDS011;3644;53.480;10.004;2023-03-23T16:05:28;6.40;;;1.53;;
7205;SDS011;3644;53.480;10.004;2023-03-23T16:07:54;3.10;;;1.73;;
7205;SDS011;3644;53.480;10.004;2023-03-23T16:10:21;3.23;;;1.77;;
7205;SDS011;3644;53.480;10.004;2023-03-23T16:12:48;2.40;;;1.70;;
7205;SDS011;3644;53.480;10.004;2023-03-23T16:15:14;7.03;;;2.37;;
7205;SDS011;3644;53.480;10.004;2023-03-23T16:17:41;8.00;;;1.80;;
7205;SDS011;3644;53.480;10.004;2023-03-23T16:20:11;2.47;;;1.43;;
7205;SDS011;3644;53.480;10.004;2023-03-23T16:22:38;5.10;;;1.60;;
7205;SDS011;3644;53.480;10.004;2023-03-23T16:25:04;3.47;;;1.73;;
7205;SDS011;3644;53.480;10.004;2023-03-23T16:27:31;1.50;;;1.40;;
7205;SDS011;3644;53.480;10.004;2023-03-23T16:29:57;3.77;;;1.57;;
7205;SDS011;3644;53.480;10.004;2023-03-23T16:32:24;3.43;;;2.10;;
7205;SDS011;3644;53.480;10.004;2023-03-23T16:34:50;8.63;;;3.00;;
7205;SDS011;3644;53.480;10.004;2023-03-23T16:37:15;6.17;;;3.27;;
7205;SDS011;3644;53.480;10.004;2023-03-23T16:39:41;3.73;;;2.63;;
7205;SDS011;3644;53.480;10.004;2023-03-23T16:42:07;13.20;;;4.60;;
7205;SDS011;3644;53.480;10.004;2023-03-23T16:44:32;52.60;;;14.93;;
7205;SDS011;3644;53.480;10.004;2023-03-23T16:46:58;8.03;;;3.20;;
7205;SDS011;3644;53.480;10.004;2023-03-23T16:49:23;29.40;;;11.50;;
7205;SDS011;3644;53.480;10.004;2023-03-23T16:51:49;8.37;;;3.77;;
7205;SDS011;3644;53.480;10.004;2023-03-23T16:54:14;7.03;;;2.70;;
7205;SDS011;3644;53.480;10.004;2023-03-23T16:56:41;4.50;;;1.77;;
7205;SDS011;3644;53.480;10.004;2023-03-23T16:59:10;6.17;;;2.00;;
7205;SDS011;3644;53.480;10.004;2023-03-23T17:01:39;6.50;;;2.10;;
7205;SDS011;3644;53.480;10.004;2023-03-23T17:04:05;2.97;;;1.40;;
7205;SDS011;3644;53.480;10.004;2023-03-23T17:06:30;2.03;;;1.80;;